createdAt,value
2022-12-22T00:07:50.975Z,8.63
2022-12-22T00:12:55.203Z,14.32
2022-12-22T00:23:02.275Z,12.63
2022-12-22T00:28:14.816Z,8.80
2022-12-22T00:33:20.287Z,7.55
2022-12-22T00:38:23.699Z,9.73
2022-12-22T00:53:34.142Z,7.50
2022-12-22T01:08:44.443Z,10.95
2022-12-22T01:13:47.769Z,10.68
2022-12-22T01:23:55.341Z,8.93
2022-12-22T01:28:59.067Z,10.00
2022-12-22T01:34:02.500Z,8.32
2022-12-22T01:39:06.011Z,7.40
2022-12-22T01:44:18.558Z,8.52
2022-12-22T01:49:27.749Z,8.50
2022-12-22T01:54:31.502Z,7.60
2022-12-22T01:59:35.224Z,8.32
2022-12-22T02:04:42.862Z,7.13
2022-12-22T02:10:03.739Z,4.93
2022-12-22T02:15:25.690Z,5.40
2022-12-22T02:20:37.477Z,4.85
2022-12-22T02:25:53.686Z,5.65
2022-12-22T02:30:57.620Z,5.40
2022-12-22T02:36:22.775Z,5.88
2022-12-22T02:41:49.902Z,5.40
2022-12-22T02:47:03.295Z,11.77
2022-12-22T02:52:33.537Z,12.05
2022-12-22T02:57:36.920Z,11.75
2022-12-22T03:07:44.076Z,10.18
2022-12-22T03:17:50.642Z,10.35
2022-12-22T03:22:53.993Z,9.27
2022-12-22T03:33:06.474Z,9.15
2022-12-22T03:38:10.097Z,13.63
2022-12-22T03:43:17.398Z,20.98
2022-12-22T03:48:20.886Z,26.05
2022-12-22T03:53:24.390Z,30.25
2022-12-22T03:58:27.723Z,26.65
2022-12-22T04:03:31.282Z,33.25
2022-12-22T04:08:37.814Z,31.73
2022-12-22T04:13:41.267Z,32.42
2022-12-22T04:18:44.731Z,27.85
2022-12-22T04:23:48.159Z,28.00
2022-12-22T04:28:52.830Z,25.15
2022-12-22T04:33:56.446Z,28.55
2022-12-22T04:38:59.790Z,24.92
2022-12-22T04:44:03.413Z,20.85
2022-12-22T04:49:06.886Z,21.63
2022-12-22T04:54:11.780Z,20.33
2022-12-22T04:59:15.250Z,20.88
2022-12-22T05:04:23.520Z,22.45
2022-12-22T05:09:27.816Z,20.92
2022-12-22T05:14:32.131Z,22.13
2022-12-22T05:19:36.281Z,20.00
2022-12-22T05:29:42.995Z,23.92
2022-12-22T05:34:47.849Z,18.15
2022-12-22T05:39:52.037Z,22.90
2022-12-22T05:44:55.507Z,23.35
2022-12-22T05:49:59.456Z,21.17
2022-12-22T05:55:03.666Z,22.13
2022-12-22T06:00:10.188Z,18.58
2022-12-22T06:05:17.450Z,18.13
2022-12-22T06:10:21.128Z,19.55
2022-12-22T06:15:24.505Z,20.63
2022-12-22T06:30:34.258Z,18.45
2022-12-22T06:40:42.864Z,20.60
2022-12-22T06:45:47.344Z,21.58
2022-12-22T06:50:51.104Z,19.30
2022-12-22T06:55:54.412Z,21.75
2022-12-22T07:06:01.727Z,18.27
2022-12-22T07:11:06.912Z,20.48
2022-12-22T07:16:11.436Z,24.90
2022-12-22T07:21:18.913Z,19.92
2022-12-22T07:26:22.392Z,21.63
2022-12-22T07:31:26.441Z,15.30
2022-12-22T07:36:29.833Z,19.13
2022-12-22T07:46:40.331Z,19.77
2022-12-22T07:51:46.203Z,18.20
2022-12-22T07:56:49.823Z,22.63
2022-12-22T08:01:53.354Z,20.23
2022-12-22T08:06:57.011Z,23.52
2022-12-22T08:12:00.485Z,17.38
2022-12-22T08:17:04.051Z,26.77
2022-12-22T08:22:09.711Z,19.30
2022-12-22T08:27:22.419Z,22.60
2022-12-22T08:32:30.607Z,18.63
2022-12-22T08:37:37.434Z,21.48
2022-12-22T08:42:41.324Z,20.05
2022-12-22T08:47:44.676Z,19.23
2022-12-22T08:52:48.216Z,20.48
2022-12-22T08:57:56.162Z,24.50
2022-12-22T09:02:59.919Z,25.73
2022-12-22T09:08:03.543Z,22.23
2022-12-22T09:13:06.780Z,24.13
2022-12-22T09:28:16.983Z,22.15
2022-12-22T09:33:20.940Z,21.00
2022-12-22T09:38:43.918Z,20.25
2022-12-22T09:43:48.191Z,19.63
2022-12-22T09:48:53.140Z,15.68
2022-12-22T09:54:01.111Z,17.75
2022-12-22T09:59:16.656Z,15.57
2022-12-22T10:04:49.519Z,16.60
2022-12-22T10:09:54.362Z,14.50
2022-12-22T10:14:57.940Z,12.75
2022-12-22T10:20:21.281Z,17.23
2022-12-22T10:26:26.825Z,14.27
2022-12-22T10:31:28.984Z,14.77
2022-12-22T10:36:33.360Z,12.57
2022-12-22T10:41:48.828Z,12.82
2022-12-22T10:46:58.234Z,12.60
2022-12-22T10:52:15.826Z,16.75
2022-12-22T10:57:19.348Z,14.63
2022-12-22T11:02:23.227Z,15.80
2022-12-22T11:07:31.306Z,12.60
2022-12-22T11:12:56.885Z,15.82
2022-12-22T11:18:27.665Z,16.77
2022-12-22T11:23:39.679Z,16.95
2022-12-22T11:28:58.088Z,16.73
2022-12-22T11:34:21.442Z,15.95
2022-12-22T11:39:35.750Z,15.50
2022-12-22T11:44:55.733Z,14.05
2022-12-22T11:50:57.602Z,9.88
2022-12-22T11:56:23.607Z,14.20
2022-12-22T12:01:48.303Z,15.93
2022-12-22T12:07:06.087Z,11.75
2022-12-22T12:12:49.675Z,10.85
2022-12-22T12:18:30.845Z,12.55
2022-12-22T12:24:27.107Z,11.98
2022-12-22T12:29:42.085Z,9.90
2022-12-22T12:34:51.638Z,12.20
2022-12-22T12:40:22.883Z,8.82
2022-12-22T12:45:38.846Z,8.82
2022-12-22T12:50:42.329Z,14.65
2022-12-22T12:55:48.676Z,10.20
2022-12-22T13:00:57.105Z,11.43
2022-12-22T13:06:04.817Z,8.57
2022-12-22T13:11:11.167Z,7.82
2022-12-22T13:16:14.405Z,7.95
2022-12-22T13:26:48.616Z,7.43
2022-12-22T13:32:14.689Z,9.65
2022-12-22T13:37:23.490Z,7.50
2022-12-22T13:42:28.262Z,9.02
2022-12-22T13:47:32.840Z,9.80
2022-12-22T13:52:36.609Z,7.70
2022-12-22T13:57:40.931Z,8.75
2022-12-22T14:02:45.434Z,8.43
2022-12-22T14:08:03.174Z,11.45
2022-12-22T14:13:14.846Z,13.40
2022-12-22T14:18:27.141Z,11.82
2022-12-22T14:23:39.065Z,11.80
2022-12-22T14:28:48.404Z,11.83
2022-12-22T14:33:58.458Z,13.43
2022-12-22T14:39:10.330Z,13.25
2022-12-22T14:44:16.676Z,10.70
2022-12-22T14:49:20.499Z,14.48
2022-12-22T14:54:27.372Z,10.15
2022-12-22T14:59:30.954Z,13.02
2022-12-22T15:04:34.372Z,19.52
2022-12-22T15:10:13.864Z,17.08
2022-12-22T15:15:01.346Z,16.98
2022-12-22T15:20:06.949Z,25.20
2022-12-22T15:25:25.113Z,31.10
2022-12-22T15:30:28.747Z,46.05
2022-12-22T15:35:34.815Z,43.05
2022-12-22T15:40:40.190Z,44.85
2022-12-22T15:45:45.140Z,44.90
2022-12-22T15:50:48.643Z,56.67
2022-12-22T15:55:55.241Z,50.53
2022-12-22T16:00:58.702Z,51.20
2022-12-22T16:06:02.335Z,72.15
2022-12-22T16:11:08.363Z,62.42
2022-12-22T16:16:12.337Z,72.80
2022-12-22T16:21:22.286Z,85.32
2022-12-22T16:26:26.582Z,71.10
2022-12-22T16:31:29.976Z,80.47
2022-12-22T16:36:33.323Z,83.72
2022-12-22T16:41:37.228Z,77.65
2022-12-22T16:46:41.770Z,82.78
2022-12-22T16:51:50.163Z,82.03
2022-12-22T16:56:53.580Z,82.63
2022-12-22T17:01:58.338Z,78.78
2022-12-22T17:07:02.996Z,81.80
2022-12-22T17:12:06.497Z,70.57
2022-12-22T17:17:17.294Z,73.95
2022-12-22T17:22:34.807Z,75.97
2022-12-22T17:27:38.175Z,79.00
2022-12-22T17:32:41.726Z,64.95
2022-12-22T17:37:46.848Z,66.85
2022-12-22T17:42:50.717Z,72.60
2022-12-22T17:47:54.123Z,68.85
2022-12-22T17:52:58.026Z,57.85
2022-12-22T17:58:01.375Z,77.30
2022-12-22T18:08:14.299Z,80.93
2022-12-22T18:13:23.354Z,74.10
2022-12-22T18:18:26.952Z,68.40
2022-12-22T18:23:33.036Z,73.63
2022-12-22T18:28:36.529Z,78.13
2022-12-22T18:33:39.947Z,83.82
2022-12-22T18:38:43.403Z,98.30
2022-12-22T18:43:46.945Z,92.97
2022-12-22T18:48:53.558Z,85.80
2022-12-22T18:53:57.444Z,100.13
2022-12-22T18:59:00.901Z,98.13
2022-12-22T19:04:05.119Z,97.95
2022-12-22T19:09:15.711Z,90.13
2022-12-22T19:14:22.468Z,106.43
2022-12-22T19:19:26.127Z,102.57
2022-12-22T19:24:29.671Z,98.88
2022-12-22T19:29:34.521Z,100.82
2022-12-22T19:34:38.017Z,95.97
2022-12-22T19:39:41.515Z,109.43
2022-12-22T19:44:45.172Z,92.57
2022-12-22T19:49:49.828Z,121.80
2022-12-22T19:54:53.402Z,115.32
2022-12-22T19:59:58.097Z,86.55
2022-12-22T20:05:01.630Z,111.63
2022-12-22T20:10:07.513Z,93.38
2022-12-22T20:15:26.998Z,89.30
2022-12-22T20:20:38.773Z,93.32
2022-12-22T20:25:45.811Z,75.68
2022-12-22T20:30:50.694Z,91.05
2022-12-22T20:35:55.835Z,80.57
2022-12-22T20:40:59.547Z,79.25
2022-12-22T20:46:12.760Z,71.40
2022-12-22T20:51:21.080Z,76.57
2022-12-22T20:56:36.776Z,77.80
2022-12-22T21:01:40.307Z,80.45
2022-12-22T21:06:52.815Z,66.63
2022-12-22T21:11:56.292Z,83.07
2022-12-22T21:17:00.439Z,82.45
2022-12-22T21:22:06.385Z,89.40
2022-12-22T21:27:19.692Z,70.75
2022-12-22T21:32:23.252Z,74.07
2022-12-22T21:37:26.828Z,66.32
2022-12-22T21:42:30.490Z,78.05
2022-12-22T21:47:34.127Z,71.75
2022-12-22T21:52:37.676Z,64.43
2022-12-22T21:57:41.750Z,61.75
2022-12-22T22:02:46.370Z,81.47
2022-12-22T22:07:49.970Z,71.60
2022-12-22T22:12:53.765Z,79.30
2022-12-22T22:18:02.973Z,69.75
2022-12-22T22:23:13.474Z,65.03
2022-12-22T22:28:16.874Z,64.30
2022-12-22T22:33:20.385Z,57.22
2022-12-22T22:38:23.800Z,65.45
2022-12-22T22:43:27.328Z,57.55
2022-12-22T22:48:30.791Z,63.30
2022-12-22T22:58:38.680Z,57.40
2022-12-22T23:08:48.640Z,53.25
2022-12-22T23:13:54.406Z,48.70
2022-12-22T23:18:57.880Z,59.10
2022-12-22T23:24:01.716Z,53.55
2022-12-22T23:29:06.417Z,55.08
2022-12-22T23:34:11.939Z,60.72
2022-12-22T23:39:15.325Z,69.63
2022-12-22T23:59:27.908Z,57.75
